Terminal Aerodrome Forecast
Issued by NWS Twin Cities, MN

Home | Current Version | Previous Version | Text Only | Print | Product List | Glossary On
Versions: 1 2 3 4 5 6 7 8 9 10 11 12 13 14 15 16 17 18 19 20 21 22 23 24
000
FTUS43 KMPX 011500 AAA
TAFMSP
TAF AMD
KMSP 011501Z 0115/0218 30005KT P6SM SCT050
     FM012000 32006KT P6SM VCTS SCT040CB BKN070
     FM020000 17003KT P6SM FEW050
     FM021500 18006KT P6SM SCT050=

USA.gov is the U.S. government's official web portal to all federal, state and local government web resources and services.